Time;durP1;ratioP1;P1;durP2;ratioP2;P2;SDS_P1;SDS_P2;PMS_P1;PMS_P2;Temp;Humidity;BMP_temperature;BMP_pressure;BME280_temperature;BME280_humidity;BME280_pressure;Samples;Min_cycle;Max_cycle;Signal;HPM_P1;HPM_P2
2023/08/23 00:00:42;;;;;;;6.90;4.35;;;;;;;-146.25;100.00;52043.78;2088611;28;20046;-66
2023/08/23 00:01:44;;;;;;;8.63;4.85;;;;;;;-146.25;100.00;52039.75;2088575;28;36334;-66
2023/08/23 00:02:46;;;;;;;8.70;4.78;;;;;;;-146.25;100.00;52031.63;2088605;28;37734;-66
2023/08/23 00:03:48;;;;;;;5.97;4.53;;;;;;;-146.25;100.00;52064.06;2088623;28;32026;-66
2023/08/23 00:04:50;;;;;;;9.77;5.47;;;;;;;-146.25;100.00;52062.03;2088110;28;35475;-66
2023/08/23 00:05:52;;;;;;;12.07;5.70;;;;;;;-146.25;100.00;52084.34;2088502;28;35236;-66
2023/08/23 00:06:54;;;;;;;13.40;6.43;;;;;;;-146.25;100.00;52080.28;2088485;28;34770;-66
2023/08/23 00:07:55;;;;;;;9.18;5.50;;;;;;;-146.25;100.00;52098.53;2088211;28;37538;-66
2023/08/23 00:08:57;;;;;;;9.23;5.55;;;;;;;-146.25;100.00;52031.63;2088570;28;32283;-66
2023/08/23 00:10:00;;;;;;;6.78;5.28;;;;;;;-146.25;100.00;52023.53;2088727;28;33242;-65
2023/08/23 00:11:02;;;;;;;10.18;5.63;;;;;;;-146.25;100.00;52078.25;2088508;28;36420;-66
2023/08/23 00:12:04;;;;;;;9.32;5.13;;;;;;;-146.25;100.00;52055.97;2088399;28;29401;-66
2023/08/23 00:13:08;;;;;;;12.18;6.07;;;;;;;-146.25;100.00;52047.84;2088193;28;35439;-66
2023/08/23 00:14:10;;;;;;;8.68;6.05;;;;;;;-146.25;100.00;52076.22;2088571;28;37744;-66
2023/08/23 00:15:11;;;;;;;11.02;6.28;;;;;;;-146.25;100.00;52064.06;2088428;28;34816;-66
2023/08/23 00:16:13;;;;;;;8.60;5.80;;;;;;;-146.25;100.00;52062.03;2088442;28;39249;-66
2023/08/23 00:17:15;;;;;;;12.05;7.18;;;;;;;-146.25;100.00;52070.16;2088512;28;26882;-66
2023/08/23 00:18:17;;;;;;;9.93;7.03;;;;;;;-146.25;100.00;52037.72;2088617;28;27788;-65
2023/08/23 00:19:18;;;;;;;9.20;5.80;;;;;;;-146.25;100.00;52060.00;2088168;28;36976;-66
2023/08/23 00:20:20;;;;;;;11.05;6.38;;;;;;;-146.25;100.00;52051.91;2088328;28;34019;-66
2023/08/23 00:21:24;;;;;;;9.70;5.90;;;;;;;-146.25;100.00;52058.00;2088455;28;34265;-66
2023/08/23 00:22:26;;;;;;;7.65;6.15;;;;;;;-146.25;100.00;52049.88;2088391;28;31460;-66
2023/08/23 00:23:28;;;;;;;10.95;6.25;;;;;;;-146.25;100.00;52074.22;2114059;23;35814;-65
2023/08/23 00:24:30;;;;;;;11.48;6.55;;;;;;;-146.25;100.00;52068.13;2096873;28;37824;-65
2023/08/23 00:25:32;;;;;;;12.07;6.50;;;;;;;-146.25;100.00;52007.31;2096196;28;33702;-66
2023/08/23 00:26:34;;;;;;;9.10;6.38;;;;;;;-146.25;100.00;52021.50;2093281;28;33632;-67
2023/08/23 00:27:36;;;;;;;8.02;5.95;;;;;;;-146.25;100.00;52023.53;2088487;28;22871;-65
2023/08/23 00:28:39;;;;;;;9.75;6.47;;;;;;;-146.25;100.00;52053.94;2087899;28;20580;-65
2023/08/23 00:29:41;;;;;;;12.02;7.07;;;;;;;-146.25;100.00;52068.13;2088373;28;20796;-65
2023/08/23 00:30:53;;;;;;;11.20;6.50;;;;;;;-146.25;100.00;52066.09;2087945;28;27470;-65
2023/08/23 00:31:55;;;;;;;9.38;7.05;;;;;;;-146.25;100.00;52045.81;2087931;28;26322;-66
2023/08/23 00:32:56;;;;;;;10.70;6.53;;;;;;;-146.25;100.00;52027.56;2089195;28;20120;-67
2023/08/23 00:33:58;;;;;;;10.55;6.82;;;;;;;-146.25;100.00;52082.31;2088376;28;24371;-65
2023/08/23 00:35:03;;;;;;;10.68;6.75;;;;;;;-146.25;100.00;52074.22;2088199;28;29738;-66
2023/08/23 00:36:07;;;;;;;12.95;7.63;;;;;;;-146.25;100.00;52072.19;2088750;28;20041;-66
2023/08/23 00:37:12;;;;;;;10.77;7.53;;;;;;;-146.25;100.00;52064.06;2087674;28;20147;-65
2023/08/23 00:38:14;;;;;;;11.18;7.75;;;;;;;-146.25;100.00;52058.00;2080359;28;22102;-65
2023/08/23 00:39:16;;;;;;;12.02;7.25;;;;;;;-146.25;100.00;52068.13;2087650;28;28650;-66
2023/08/23 00:40:19;;;;;;;11.50;7.93;;;;;;;-146.25;100.00;52055.97;2087696;28;33881;-66
2023/08/23 00:41:26;;;;;;;11.50;7.78;;;;;;;-146.25;100.00;52084.34;2071990;28;20168;-66
2023/08/23 00:42:28;;;;;;;12.10;7.85;;;;;;;-146.25;100.00;52100.56;2072803;28;20050;-66
2023/08/23 00:43:30;;;;;;;11.90;7.53;;;;;;;-146.25;100.00;52049.88;2088030;28;20940;-66
2023/08/23 00:44:32;;;;;;;12.65;8.77;;;;;;;-146.25;100.00;52062.03;2096861;28;20044;-66
2023/08/23 00:45:37;;;;;;;13.63;9.15;;;;;;;-146.25;100.00;52029.59;2088838;28;20130;-66
2023/08/23 00:46:39;;;;;;;12.77;6.95;;;;;;;-146.25;100.00;52066.09;2087852;28;26231;-66
2023/08/23 00:47:41;;;;;;;10.02;7.43;;;;;;;-146.25;100.00;52088.41;2080333;28;23358;-66
2023/08/23 00:48:46;;;;;;;9.05;7.32;;;;;;;-146.25;100.00;52053.94;2071649;28;32912;-66
2023/08/23 00:49:52;;;;;;;13.40;8.43;;;;;;;-146.25;100.00;52086.38;2081080;28;20042;-66
2023/08/23 00:50:54;;;;;;;14.65;8.80;;;;;;;-146.25;100.00;52035.69;2088082;28;22516;-66
2023/08/23 00:51:55;;;;;;;12.77;7.78;;;;;;;-146.25;100.00;52047.84;2088133;28;20146;-66
2023/08/23 00:52:58;;;;;;;12.30;8.65;;;;;;;-146.25;100.00;52064.06;2088171;28;20045;-66
2023/08/23 00:54:00;;;;;;;12.43;8.98;;;;;;;-146.25;100.00;52064.06;2079461;28;32161;-66
2023/08/23 00:55:04;;;;;;;9.77;7.57;;;;;;;-146.25;100.00;52055.97;2090443;28;29267;-66
2023/08/23 00:56:07;;;;;;;10.32;8.18;;;;;;;-146.25;100.00;52072.19;2088038;28;20052;-66
2023/08/23 00:57:10;;;;;;;12.00;9.38;;;;;;;-146.25;100.00;52084.34;2087198;28;35211;-67
2023/08/23 00:58:12;;;;;;;15.82;9.18;;;;;;;-146.25;100.00;52047.84;2088374;28;20053;-67
2023/08/23 00:59:14;;;;;;;14.75;8.60;;;;;;;-146.25;100.00;52076.22;2088171;28;20046;-66
2023/08/23 01:00:17;;;;;;;11.38;8.68;;;;;;;-146.25;100.00;52051.91;2079697;28;20299;-64
2023/08/23 01:01:19;;;;;;;11.32;7.72;;;;;;;-146.25;100.00;52066.09;2079940;28;20969;-66
2023/08/23 01:02:24;;;;;;;12.02;7.60;;;;;;;-146.25;100.00;52084.34;2080587;28;20044;-67
2023/08/23 01:03:26;;;;;;;12.77;9.80;;;;;;;-146.25;100.00;52072.19;2087732;28;25731;-67
2023/08/23 01:04:28;;;;;;;14.35;9.48;;;;;;;-146.25;100.00;52062.03;2095780;28;28079;-67
2023/08/23 01:05:50;;;;;;;15.65;9.48;;;;;;;-146.25;100.00;52074.22;2087743;28;21999;-67
2023/08/23 01:07:17;;;;;;;15.13;8.27;;;;;;;-146.25;100.00;52064.06;2090274;28;31270;-67
2023/08/23 01:08:57;;;;;;;15.35;10.13;;;;;;;-146.25;100.00;52068.13;2087920;28;20899;-67
2023/08/23 01:10:16;;;;;;;13.77;8.27;;;;;;;-146.25;100.00;52070.16;2088104;28;29765;-68
2023/08/23 01:11:57;;;;;;;13.30;9.68;;;;;;;-146.25;100.00;52045.81;2087992;28;20034;-66
2023/08/23 01:13:12;;;;;;;11.30;7.68;;;;;;;-146.25;100.00;52037.72;2078037;28;21546;-66
2023/08/23 01:14:49;;;;;;;12.98;8.55;;;;;;;-146.25;100.00;52080.28;2085164;28;28463;-67
2023/08/23 01:15:55;;;;;;;10.35;7.10;;;;;;;-146.25;100.00;52072.19;2087736;28;20911;-66
2023/08/23 01:17:00;;;;;;;13.30;8.98;;;;;;;-146.25;100.00;52094.47;2080831;28;20031;-65
2023/08/23 01:18:02;;;;;;;12.57;8.57;;;;;;;-146.25;100.00;52080.28;2080007;28;32579;-66
2023/08/23 01:19:38;;;;;;;11.95;8.30;;;;;;;-146.25;100.00;52060.00;2079408;28;20038;-65
2023/08/23 01:20:40;;;;;;;11.90;7.13;;;;;;;-146.25;100.00;52080.28;2062135;28;31092;-66
2023/08/23 01:21:46;;;;;;;11.45;7.53;;;;;;;-146.25;100.00;52060.00;2083293;28;29013;-67
2023/08/23 01:23:11;;;;;;;13.43;8.43;;;;;;;-146.25;100.00;52047.84;2079311;28;32141;-66
2023/08/23 01:24:13;;;;;;;13.20;8.77;;;;;;;-146.25;100.00;52106.66;2078598;28;23471;-66
2023/08/23 01:25:15;;;;;;;11.15;8.20;;;;;;;-146.25;100.00;52060.00;2081543;28;31019;-66
2023/08/23 01:26:17;;;;;;;15.00;9.90;;;;;;;-146.25;100.00;52084.34;2080124;28;20140;-67
2023/08/23 01:27:19;;;;;;;14.80;10.13;;;;;;;-146.25;100.00;52066.09;2087380;28;32291;-66
2023/08/23 01:28:21;;;;;;;14.23;9.20;;;;;;;-146.25;100.00;52072.19;2096263;28;21825;-64
2023/08/23 01:29:22;;;;;;;13.80;8.80;;;;;;;-146.25;100.00;52031.63;2095922;28;24227;-65
2023/08/23 01:30:27;;;;;;;12.35;9.55;;;;;;;-146.25;100.00;52051.91;2088473;28;20041;-66
2023/08/23 01:31:33;;;;;;;12.00;8.52;;;;;;;-146.25;100.00;52047.84;2088126;28;26349;-66
2023/08/23 01:32:50;;;;;;;18.67;9.40;;;;;;;-146.25;100.00;52041.75;2079576;28;24154;-65
2023/08/23 01:34:11;;;;;;;11.05;8.57;;;;;;;-146.25;100.00;52086.38;2084308;28;26574;-65
2023/08/23 01:35:30;;;;;;;15.32;9.40;;;;;;;-146.25;100.00;52088.41;2096358;28;20049;-65
2023/08/23 01:36:36;;;;;;;16.52;9.52;;;;;;;-146.25;100.00;52074.22;2088344;28;20067;-66
2023/08/23 01:37:43;;;;;;;14.55;9.98;;;;;;;-146.25;100.00;52045.81;2073151;28;30962;-66
2023/08/23 01:38:47;;;;;;;12.50;9.30;;;;;;;-146.25;100.00;52064.06;2073257;28;29557;-66
2023/08/23 01:39:52;;;;;;;12.18;9.48;;;;;;;-146.25;100.00;52058.00;2087447;28;30609;-66
2023/08/23 01:40:55;;;;;;;12.85;9.82;;;;;;;-146.25;100.00;52108.66;2088638;28;21015;-65
2023/08/23 01:41:58;;;;;;;13.50;10.43;;;;;;;-146.25;100.00;52060.00;2087437;28;20123;-66
2023/08/23 01:43:00;;;;;;;14.27;10.15;;;;;;;-146.25;100.00;52039.75;2080149;28;23933;-65
2023/08/23 01:44:02;;;;;;;13.00;10.35;;;;;;;-146.25;100.00;52064.06;2087510;28;24021;-66
2023/08/23 01:45:05;;;;;;;13.80;10.13;;;;;;;-146.25;100.00;52043.78;2088800;28;26676;-66
2023/08/23 01:46:06;;;;;;;13.95;9.95;;;;;;;-146.25;100.00;52080.28;2087804;28;27526;-66
2023/08/23 01:47:09;;;;;;;15.52;10.65;;;;;;;-146.25;100.00;52064.06;2088654;28;20037;-66
2023/08/23 01:48:11;;;;;;;15.52;9.93;;;;;;;-146.25;100.00;52070.16;2087140;28;30793;-67
2023/08/23 01:49:13;;;;;;;13.95;10.05;;;;;;;-146.25;100.00;52112.72;2087579;28;28163;-67
2023/08/23 01:50:14;;;;;;;14.82;10.93;;;;;;;-146.25;100.00;52033.66;2088912;28;29284;-66
2023/08/23 01:51:17;;;;;;;14.35;10.13;;;;;;;-146.25;100.00;52098.53;2087711;28;30775;-66
2023/08/23 01:52:21;;;;;;;12.43;10.20;;;;;;;-146.25;100.00;52072.19;2088150;28;27661;-66
2023/08/23 01:53:25;;;;;;;15.38;10.25;;;;;;;-146.25;100.00;52055.97;2088029;28;31695;-66
2023/08/23 01:54:27;;;;;;;13.95;10.60;;;;;;;-146.25;100.00;52076.22;2088037;28;20103;-66
2023/08/23 01:55:29;;;;;;;15.02;10.15;;;;;;;-146.25;100.00;52068.13;2088113;28;30351;-66
2023/08/23 01:56:31;;;;;;;12.95;10.35;;;;;;;-146.25;100.00;52045.81;2079259;28;20046;-67
2023/08/23 01:57:36;;;;;;;13.85;9.68;;;;;;;-146.25;100.00;52068.13;2063967;28;20051;-66
2023/08/23 01:58:40;;;;;;;13.55;10.65;;;;;;;-146.25;100.00;52102.59;2072253;28;20970;-65
2023/08/23 01:59:45;;;;;;;16.85;11.02;;;;;;;-146.25;100.00;52078.25;2080058;28;20077;-67
2023/08/23 02:00:47;;;;;;;13.30;10.10;;;;;;;-146.25;100.00;52055.97;2078305;28;22862;-66
2023/08/23 02:01:51;;;;;;;14.60;10.50;;;;;;;-146.25;100.00;52080.28;2070694;28;31510;-65
2023/08/23 02:02:53;;;;;;;14.15;10.60;;;;;;;-146.25;100.00;52049.88;2071901;28;20959;-65
2023/08/23 02:03:57;;;;;;;12.05;9.23;;;;;;;-146.25;100.00;52047.84;2071574;28;20039;-67
2023/08/23 02:04:59;;;;;;;11.90;8.98;;;;;;;-146.25;100.00;52092.44;2071724;28;28900;-64
2023/08/23 02:06:01;;;;;;;11.43;8.57;;;;;;;-146.25;100.00;52082.31;2087255;28;29276;-65
2023/08/23 02:07:02;;;;;;;13.15;10.18;;;;;;;-146.25;100.00;52090.44;2080417;28;23964;-65
2023/08/23 02:08:04;;;;;;;13.25;10.18;;;;;;;-146.25;100.00;52035.69;2079982;28;22780;-66
2023/08/23 02:09:10;;;;;;;10.25;8.60;;;;;;;-146.25;100.00;52064.06;2079492;28;20966;-65
2023/08/23 02:10:12;;;;;;;13.68;10.55;;;;;;;-146.25;100.00;52072.19;2079422;28;22157;-65
2023/08/23 02:11:14;;;;;;;12.80;10.32;;;;;;;-146.25;100.00;52076.22;2080061;28;20161;-66
2023/08/23 02:12:16;;;;;;;14.90;10.80;;;;;;;-146.25;100.00;52070.16;2079026;28;22292;-65
2023/08/23 02:13:22;;;;;;;15.25;12.80;;;;;;;-146.25;100.00;52068.13;2079237;28;20216;-65
2023/08/23 02:14:23;;;;;;;17.40;12.40;;;;;;;-146.25;100.00;52066.09;2087085;28;25676;-66
2023/08/23 02:15:28;;;;;;;18.75;13.07;;;;;;;-146.25;100.00;52076.22;2079381;28;30962;-66
2023/08/23 02:16:30;;;;;;;18.70;13.52;;;;;;;-146.25;100.00;52088.41;2079464;28;20046;-64
2023/08/23 02:17:32;;;;;;;16.48;11.38;;;;;;;-146.25;100.00;52037.72;2079319;28;20136;-66
2023/08/23 02:18:33;;;;;;;14.52;10.32;;;;;;;-146.25;100.00;52072.19;2087298;28;27795;-67
2023/08/23 02:19:35;;;;;;;12.82;10.45;;;;;;;-146.25;100.00;52047.84;2082221;28;26677;-67
2023/08/23 02:20:37;;;;;;;15.57;10.93;;;;;;;-146.25;100.00;52080.28;2089338;28;26680;-67
2023/08/23 02:21:41;;;;;;;12.10;10.35;;;;;;;-146.25;100.00;52027.56;2086836;28;20049;-68
2023/08/23 02:22:43;;;;;;;14.18;9.65;;;;;;;-146.25;100.00;52039.75;2087018;28;27528;-67
2023/08/23 02:23:44;;;;;;;13.40;11.27;;;;;;;-146.25;100.00;52055.97;2087476;28;33365;-67
2023/08/23 02:24:46;;;;;;;12.15;10.75;;;;;;;-146.25;100.00;52086.38;2087865;28;30691;-67
2023/08/23 02:25:48;;;;;;;13.57;11.02;;;;;;;-146.25;100.00;52070.16;2087183;28;23379;-65
2023/08/23 02:26:50;;;;;;;15.80;11.90;;;;;;;-146.25;100.00;52068.13;2086813;28;34320;-66
2023/08/23 02:27:54;;;;;;;14.77;11.10;;;;;;;-146.25;100.00;52066.09;2088158;28;20030;-67
2023/08/23 02:28:56;;;;;;;13.23;10.82;;;;;;;-146.25;100.00;52102.59;2088525;28;22931;-66
2023/08/23 02:30:00;;;;;;;17.17;12.77;;;;;;;-146.25;100.00;52062.03;2088023;28;20466;-67
2023/08/23 02:31:03;;;;;;;14.18;11.27;;;;;;;-146.25;100.00;52025.53;2088282;28;20048;-66
2023/08/23 02:32:05;;;;;;;13.43;11.60;;;;;;;-146.25;100.00;52100.56;2087194;28;25105;-67
2023/08/23 02:33:08;;;;;;;11.57;9.48;;;;;;;-146.25;100.00;52064.06;2087618;28;20054;-66
2023/08/23 02:34:10;;;;;;;13.43;10.55;;;;;;;-146.25;100.00;52066.09;2087958;28;25682;-66
2023/08/23 02:35:12;;;;;;;13.40;11.05;;;;;;;-146.25;100.00;52108.66;2095739;28;20041;-65
2023/08/23 02:36:19;;;;;;;17.52;12.63;;;;;;;-146.25;100.00;52072.19;2079265;28;20128;-67
2023/08/23 02:37:21;;;;;;;13.27;10.02;;;;;;;-146.25;100.00;52116.78;2079522;28;25492;-67
2023/08/23 02:38:23;;;;;;;16.92;13.68;;;;;;;-146.25;100.00;52088.41;2087291;28;27142;-67
2023/08/23 02:39:25;;;;;;;18.13;12.75;;;;;;;-146.25;100.00;52080.28;2087455;28;23697;-66
2023/08/23 02:40:27;;;;;;;16.02;12.23;;;;;;;-146.25;100.00;52066.09;2078835;28;27089;-66
2023/08/23 02:41:29;;;;;;;17.40;12.60;;;;;;;-146.25;100.00;52100.56;2087357;28;25237;-66
2023/08/23 02:42:32;;;;;;;18.10;13.15;;;;;;;-146.25;100.00;52092.44;2087290;28;20049;-66
2023/08/23 02:43:35;;;;;;;18.40;12.32;;;;;;;-146.25;100.00;52068.13;2079485;28;20078;-66
2023/08/23 02:44:37;;;;;;;12.82;11.15;;;;;;;-146.25;100.00;52088.41;2079010;28;23376;-65
2023/08/23 02:45:42;;;;;;;18.45;13.25;;;;;;;-146.25;100.00;52062.03;2086893;28;35664;-67
2023/08/23 02:46:44;;;;;;;16.48;11.38;;;;;;;-146.25;100.00;52104.63;2087551;28;26206;-66
2023/08/23 02:47:45;;;;;;;16.60;12.60;;;;;;;-146.25;100.00;52076.22;2087367;28;20033;-66
2023/08/23 02:48:47;;;;;;;21.48;13.30;;;;;;;-146.25;100.00;52060.00;2088151;28;23586;-67
2023/08/23 02:49:50;;;;;;;21.75;15.30;;;;;;;-146.25;100.00;52102.59;2088256;28;20115;-66
2023/08/23 02:50:54;;;;;;;27.90;17.15;;;;;;;-146.25;100.00;52096.50;2087107;28;20852;-67
2023/08/23 02:51:56;;;;;;;22.83;15.65;;;;;;;-146.25;100.00;52072.19;2087152;28;28604;-66
2023/08/23 02:52:57;;;;;;;24.45;18.02;;;;;;;-146.25;100.00;52088.41;2087626;28;20938;-67
2023/08/23 02:53:59;;;;;;;26.15;18.02;;;;;;;-146.25;100.00;52058.00;2087858;28;20045;-66
2023/08/23 02:55:03;;;;;;;24.20;17.88;;;;;;;-146.25;100.00;52064.06;2087640;28;26451;-67
2023/08/23 02:56:05;;;;;;;23.70;17.65;;;;;;;-146.25;100.00;52096.50;2087473;28;31392;-66
2023/08/23 02:57:08;;;;;;;25.38;18.73;;;;;;;-146.25;100.00;52043.78;2088038;28;20041;-67
2023/08/23 02:58:09;;;;;;;24.63;16.80;;;;;;;-146.25;100.00;52066.09;2087504;28;20131;-66
2023/08/23 02:59:13;;;;;;;23.80;18.17;;;;;;;-146.25;100.00;52076.22;2087083;28;26790;-66
2023/08/23 03:00:16;;;;;;;18.35;14.90;;;;;;;-146.25;100.00;52060.00;2088110;28;21062;-66
2023/08/23 03:01:17;;;;;;;19.23;16.95;;;;;;;-146.25;100.00;52068.13;2087455;28;21524;-65
2023/08/23 03:02:19;;;;;;;24.77;17.38;;;;;;;-146.25;100.00;52106.66;2088179;28;27051;-65
2023/08/23 03:03:21;;;;;;;21.60;16.15;;;;;;;-146.25;100.00;52055.97;2087690;28;25683;-67
2023/08/23 03:04:23;;;;;;;23.58;17.13;;;;;;;-146.25;100.00;52092.44;2094993;28;36524;-66
2023/08/23 03:05:27;;;;;;;23.88;17.08;;;;;;;-146.25;100.00;52053.94;2086897;28;23744;-66
2023/08/23 03:06:29;;;;;;;22.00;17.15;;;;;;;-146.25;100.00;52076.22;2079110;28;28378;-66
2023/08/23 03:07:30;;;;;;;24.15;17.75;;;;;;;-146.25;100.00;52092.44;2087069;28;25787;-66
2023/08/23 03:08:34;;;;;;;26.58;18.33;;;;;;;-146.25;100.00;52068.13;2095676;28;20855;-65
2023/08/23 03:09:35;;;;;;;20.65;15.23;;;;;;;-146.25;100.00;52003.25;2095377;28;24635;-67
2023/08/23 03:10:39;;;;;;;22.42;17.35;;;;;;;-146.25;100.00;52094.47;2087116;28;22311;-66
2023/08/23 03:11:40;;;;;;;19.00;15.85;;;;;;;-146.25;100.00;52066.09;2086776;28;20045;-65
2023/08/23 03:12:42;;;;;;;17.90;15.27;;;;;;;-146.25;100.00;52090.44;2086759;28;31476;-65
2023/08/23 03:13:44;;;;;;;18.00;14.45;;;;;;;-146.25;100.00;52080.28;2079403;28;20153;-67
2023/08/23 03:14:46;;;;;;;23.92;16.27;;;;;;;-146.25;100.00;52047.84;2079099;28;20045;-65
2023/08/23 03:15:55;;;;;;;16.70;13.70;;;;;;;-146.25;100.00;52112.72;2087349;28;20079;-66
2023/08/23 03:16:57;;;;;;;23.42;17.98;;;;;;;-146.25;100.00;52080.28;2087113;28;20034;-66
2023/08/23 03:17:59;;;;;;;21.90;15.43;;;;;;;-146.25;100.00;52092.44;2079121;28;20702;-66
2023/08/23 03:19:01;;;;;;;21.38;15.00;;;;;;;-146.25;100.00;52110.69;2080716;28;20037;-66
2023/08/23 03:20:05;;;;;;;20.70;15.25;;;;;;;-146.25;100.00;52096.50;2080598;28;20042;-65
2023/08/23 03:21:07;;;;;;;18.42;14.90;;;;;;;-146.25;100.00;52066.09;2088479;28;20049;-68
2023/08/23 03:22:12;;;;;;;24.75;15.88;;;;;;;-146.25;100.00;52074.22;2080848;28;20333;-65
2023/08/23 03:23:19;;;;;;;20.65;15.13;;;;;;;-146.25;100.00;52104.63;2080733;28;20057;-67
2023/08/23 03:24:23;;;;;;;23.73;17.17;;;;;;;-146.25;100.00;52072.19;2081048;28;20045;-66
2023/08/23 03:25:26;;;;;;;19.33;14.07;;;;;;;-146.25;100.00;52078.25;2080372;28;20124;-64
2023/08/23 03:26:28;;;;;;;20.33;15.20;;;;;;;-146.25;100.00;52092.44;2088686;28;20041;-66
2023/08/23 03:27:32;;;;;;;18.80;14.80;;;;;;;-146.25;100.00;52055.97;2080345;28;20050;-65
2023/08/23 03:28:34;;;;;;;18.02;13.27;;;;;;;-146.25;100.00;52094.47;2072164;28;20038;-65
2023/08/23 03:29:46;;;;;;;19.27;13.85;;;;;;;-146.25;100.00;52128.94;2072947;28;20047;-67
2023/08/23 03:30:48;;;;;;;20.67;13.57;;;;;;;-146.25;100.00;52098.53;2081643;28;20157;-67
2023/08/23 03:31:53;;;;;;;16.98;13.07;;;;;;;-146.25;100.00;52076.22;2080544;28;20046;-65
2023/08/23 03:32:58;;;;;;;18.15;14.57;;;;;;;-146.25;100.00;52106.66;2072234;28;20035;-66
2023/08/23 03:33:59;;;;;;;18.35;13.07;;;;;;;-146.25;100.00;52102.59;2080715;28;20172;-66
2023/08/23 03:35:04;;;;;;;21.52;14.95;;;;;;;-146.25;100.00;52068.13;2080212;28;20116;-65
2023/08/23 03:36:06;;;;;;;19.02;15.23;;;;;;;-146.25;100.00;52098.53;2080234;28;22990;-66
2023/08/23 03:37:08;;;;;;;18.42;14.15;;;;;;;-146.25;100.00;52062.03;2081008;28;22142;-66
2023/08/23 03:38:11;;;;;;;17.65;14.43;;;;;;;-146.25;100.00;52090.44;2088610;28;20042;-66
2023/08/23 03:39:13;;;;;;;19.15;15.30;;;;;;;-146.25;100.00;52080.28;2088198;28;27885;-66
2023/08/23 03:40:15;;;;;;;21.55;15.70;;;;;;;-146.25;100.00;52070.16;2081328;28;20050;-66
2023/08/23 03:41:17;;;;;;;14.43;12.93;;;;;;;-146.25;100.00;52096.50;2079850;28;20026;-64
2023/08/23 03:42:19;;;;;;;22.45;16.02;;;;;;;-146.25;100.00;52076.22;2071989;28;20843;-67
2023/08/23 03:43:21;;;;;;;18.23;15.20;;;;;;;-146.25;100.00;52084.34;2080412;28;20085;-66
2023/08/23 03:44:25;;;;;;;16.95;14.13;;;;;;;-146.25;100.00;52100.56;2080841;28;24233;-65
2023/08/23 03:45:27;;;;;;;13.02;11.73;;;;;;;-146.25;100.00;52070.16;2080094;28;20815;-67
2023/08/23 03:46:29;;;;;;;17.40;11.95;;;;;;;-146.25;100.00;52076.22;2071863;28;25656;-65
2023/08/23 03:47:31;;;;;;;16.23;13.32;;;;;;;-146.25;100.00;52086.38;2071932;28;31447;-66
2023/08/23 03:48:34;;;;;;;16.15;14.45;;;;;;;-146.25;100.00;52096.50;2080759;28;20661;-66
2023/08/23 03:49:36;;;;;;;17.17;14.70;;;;;;;-146.25;100.00;52076.22;2079966;28;23398;-65
2023/08/23 03:50:38;;;;;;;16.35;14.60;;;;;;;-146.25;100.00;52118.81;2072162;28;20039;-68
2023/08/23 03:51:39;;;;;;;13.60;12.30;;;;;;;-146.25;100.00;52080.28;2080518;28;20121;-66
2023/08/23 03:52:41;;;;;;;14.40;12.93;;;;;;;-146.25;100.00;52100.56;2080807;28;24166;-66
2023/08/23 03:53:44;;;;;;;15.60;14.00;;;;;;;-146.25;100.00;52080.28;2080547;28;20054;-66
2023/08/23 03:54:46;;;;;;;15.15;13.65;;;;;;;-146.25;100.00;52130.97;2094033;28;20053;-66
2023/08/23 03:55:53;;;;;;;14.38;13.00;;;;;;;-146.25;100.00;52100.56;2101644;28;32068;-66
2023/08/23 03:56:55;;;;;;;13.20;11.82;;;;;;;-146.25;100.00;52100.56;2079968;28;20123;-66
2023/08/23 03:57:57;;;;;;;14.63;13.18;;;;;;;-146.25;100.00;52094.47;2063567;28;29867;-65
2023/08/23 03:59:01;;;;;;;14.68;13.23;;;;;;;-146.25;100.00;52094.47;2071567;28;20917;-65
2023/08/23 04:00:04;;;;;;;14.02;12.73;;;;;;;-146.25;100.00;52088.41;2080479;28;20033;-66
2023/08/23 04:01:15;;;;;;;11.68;10.55;;;;;;;-146.25;100.00;52102.59;2080810;28;20104;-66
2023/08/23 04:02:18;;;;;;;13.02;11.18;;;;;;;-146.25;100.00;52080.28;2087998;28;20050;-67
2023/08/23 04:03:21;;;;;;;13.68;12.27;;;;;;;-146.25;100.00;52128.94;2079848;28;20808;-66
2023/08/23 04:04:23;;;;;;;13.77;12.38;;;;;;;-146.25;100.00;52102.59;2080617;28;20049;-67
2023/08/23 04:05:26;;;;;;;13.77;12.48;;;;;;;-146.25;100.00;52082.31;2088358;28;20779;-67
2023/08/23 04:06:34;;;;;;;12.88;11.68;;;;;;;-146.25;100.00;52088.41;2079740;28;20942;-65
2023/08/23 04:07:35;;;;;;;14.02;12.50;;;;;;;-146.25;100.00;52149.22;2095890;23;20213;-68
2023/08/23 04:08:37;;;;;;;13.93;12.63;;;;;;;-146.25;100.00;52068.13;2073070;28;26721;-68
2023/08/23 04:09:39;;;;;;;14.43;12.93;;;;;;;-146.25;100.00;52106.66;2071696;28;33692;-70
2023/08/23 04:10:50;;;;;;;17.35;13.23;;;;;;;-146.25;100.00;52124.91;2080418;28;20136;-68
2023/08/23 04:11:54;;;;;;;15.23;13.25;;;;;;;-146.25;100.00;52118.81;2079544;28;20183;-70
2023/08/23 04:12:56;;;;;;;13.80;12.50;;;;;;;-146.25;100.00;52108.66;2080689;28;20092;-70
2023/08/23 04:13:58;;;;;;;16.42;14.85;;;;;;;-146.25;100.00;52088.41;2088221;28;20077;-69
2023/08/23 04:15:04;;;;;;;15.07;13.68;;;;;;;-146.25;100.00;52082.31;2079806;28;20042;-68
2023/08/23 04:16:11;;;;;;;15.50;13.65;;;;;;;-146.25;100.00;52076.22;2063898;28;20058;-67
2023/08/23 04:17:13;;;;;;;15.43;13.73;;;;;;;-146.25;100.00;52110.69;2065261;28;20205;-70
2023/08/23 04:18:14;;;;;;;15.38;13.93;;;;;;;-146.25;100.00;52076.22;2080014;28;28070;-70
2023/08/23 04:19:17;;;;;;;21.35;15.02;;;;;;;-146.25;100.00;52094.47;2080739;28;20038;-70
2023/08/23 04:20:19;;;;;;;17.75;13.93;;;;;;;-146.25;100.00;52096.50;2080012;28;20184;-67
2023/08/23 04:21:24;;;;;;;31.85;12.63;;;;;;;-146.25;100.00;52104.63;2072748;28;20887;-68
2023/08/23 04:22:27;;;;;;;18.10;14.13;;;;;;;-146.25;100.00;52086.38;2072193;28;20927;-67
2023/08/23 04:23:31;;;;;;;22.23;14.63;;;;;;;-146.25;100.00;52094.47;2072097;28;20176;-67
2023/08/23 04:24:34;;;;;;;44.40;13.30;;;;;;;-146.25;100.00;52094.47;2064290;28;20039;-65
2023/08/23 04:25:37;;;;;;;20.30;13.30;;;;;;;-146.25;100.00;52133.00;2073093;28;23198;-68
2023/08/23 04:26:39;;;;;;;26.02;14.98;;;;;;;-146.25;100.00;52122.88;2071871;28;20046;-67
2023/08/23 04:27:42;;;;;;;24.30;12.15;;;;;;;-146.25;100.00;52110.69;2071331;28;22330;-68
2023/08/23 04:28:46;;;;;;;13.73;11.63;;;;;;;-146.25;100.00;52096.50;2071965;28;20091;-69
2023/08/23 04:29:47;;;;;;;20.88;15.75;;;;;;;-146.25;100.00;52092.44;2071044;28;20045;-69
2023/08/23 04:30:52;;;;;;;31.38;15.55;;;;;;;-146.25;100.00;52112.72;2071508;28;20175;-67
2023/08/23 04:31:54;;;;;;;24.65;14.60;;;;;;;-146.25;100.00;52137.06;2064238;28;20038;-69
2023/08/23 04:33:02;;;;;;;22.08;15.20;;;;;;;-146.25;100.00;52122.88;2072458;28;20177;-69
2023/08/23 04:34:04;;;;;;;25.92;12.82;;;;;;;-146.25;100.00;52133.00;2071765;28;20161;-68
2023/08/23 04:35:08;;;;;;;25.85;15.07;;;;;;;-146.25;100.00;52102.59;2071679;28;20149;-67
2023/08/23 04:36:14;;;;;;;32.40;14.75;;;;;;;-146.25;100.00;52104.63;2072032;28;22028;-68
2023/08/23 04:37:17;;;;;;;23.17;14.68;;;;;;;-146.25;100.00;52102.59;2078979;28;25378;-69
2023/08/23 04:38:19;;;;;;;18.60;16.00;;;;;;;-146.25;100.00;52090.44;2073273;28;20886;-68
2023/08/23 04:39:21;;;;;;;29.38;16.17;;;;;;;-146.25;100.00;52104.63;2071689;28;20124;-68
2023/08/23 04:40:23;;;;;;;27.10;17.90;;;;;;;-146.25;100.00;52120.84;2072004;28;21239;-68
2023/08/23 04:41:25;;;;;;;21.88;15.98;;;;;;;-146.25;100.00;52094.47;2063261;28;20177;-68
2023/08/23 04:42:36;;;;;;;29.48;17.75;;;;;;;-146.25;100.00;52100.56;2063278;28;20047;-68
2023/08/23 04:43:38;;;;;;;22.75;15.98;;;;;;;-146.25;100.00;52124.91;2073435;28;20182;-68
2023/08/23 04:44:41;;;;;;;30.52;18.45;;;;;;;-146.25;100.00;52084.34;2071439;28;20046;-68
2023/08/23 04:45:45;;;;;;;36.75;19.48;;;;;;;-146.25;100.00;52098.53;2071507;28;20156;-68